sensor_id;sensor_type;location;lat;lon;timestamp;P1;durP1;ratioP1;P2;durP2;ratioP2
24173;SDS011;12324;48.146;11.502;2022-12-18T00:02:05;59.80;;;37.80;;
24173;SDS011;12324;48.146;11.502;2022-12-18T00:04:32;65.68;;;38.55;;
24173;SDS011;12324;48.146;11.502;2022-12-18T00:06:59;61.08;;;37.65;;
24173;SDS011;12324;48.146;11.502;2022-12-18T00:09:26;64.18;;;37.35;;
24173;SDS011;12324;48.146;11.502;2022-12-18T00:12:05;59.47;;;37.03;;
24173;SDS011;12324;48.146;11.502;2022-12-18T00:14:40;65.18;;;38.75;;
24173;SDS011;12324;48.146;11.502;2022-12-18T00:17:07;66.65;;;40.58;;
24173;SDS011;12324;48.146;11.502;2022-12-18T00:19:35;65.15;;;36.95;;
24173;SDS011;12324;48.146;11.502;2022-12-18T00:22:01;71.65;;;39.13;;
24173;SDS011;12324;48.146;11.502;2022-12-18T00:24:28;66.95;;;36.88;;
24173;SDS011;12324;48.146;11.502;2022-12-18T00:26:55;65.45;;;38.67;;
24173;SDS011;12324;48.146;11.502;2022-12-18T00:29:21;68.35;;;37.95;;
24173;SDS011;12324;48.146;11.502;2022-12-18T00:31:48;64.43;;;37.38;;
24173;SDS011;12324;48.146;11.502;2022-12-18T00:34:15;70.88;;;38.95;;
24173;SDS011;12324;48.146;11.502;2022-12-18T00:36:41;71.55;;;40.45;;
24173;SDS011;12324;48.146;11.502;2022-12-18T00:39:09;69.85;;;38.55;;
24173;SDS011;12324;48.146;11.502;2022-12-18T00:41:36;78.30;;;41.70;;
24173;SDS011;12324;48.146;11.502;2022-12-18T00:44:36;79.80;;;42.67;;
24173;SDS011;12324;48.146;11.502;2022-12-18T00:47:02;79.43;;;41.55;;
24173;SDS011;12324;48.146;11.502;2022-12-18T00:49:29;85.85;;;44.15;;
24173;SDS011;12324;48.146;11.502;2022-12-18T00:51:56;87.78;;;45.10;;
24173;SDS011;12324;48.146;11.502;2022-12-18T00:54:23;85.38;;;46.88;;
24173;SDS011;12324;48.146;11.502;2022-12-18T00:56:49;79.85;;;41.20;;
24173;SDS011;12324;48.146;11.502;2022-12-18T00:59:17;80.32;;;42.20;;
24173;SDS011;12324;48.146;11.502;2022-12-18T01:01:44;88.30;;;44.17;;
24173;SDS011;12324;48.146;11.502;2022-12-18T01:04:12;83.93;;;43.50;;
24173;SDS011;12324;48.146;11.502;2022-12-18T01:06:38;89.47;;;45.17;;
24173;SDS011;12324;48.146;11.502;2022-12-18T01:09:05;91.38;;;44.92;;
24173;SDS011;12324;48.146;11.502;2022-12-18T01:11:32;93.15;;;43.53;;
24173;SDS011;12324;48.146;11.502;2022-12-18T01:13:59;90.05;;;43.05;;
24173;SDS011;12324;48.146;11.502;2022-12-18T01:16:26;88.25;;;44.85;;
24173;SDS011;12324;48.146;11.502;2022-12-18T01:18:54;83.05;;;45.05;;
24173;SDS011;12324;48.146;11.502;2022-12-18T01:21:22;83.38;;;42.03;;
24173;SDS011;12324;48.146;11.502;2022-12-18T01:23:53;92.25;;;44.10;;
24173;SDS011;12324;48.146;11.502;2022-12-18T01:26:20;77.40;;;39.55;;
24173;SDS011;12324;48.146;11.502;2022-12-18T01:28:47;83.82;;;42.88;;
24173;SDS011;12324;48.146;11.502;2022-12-18T01:31:19;85.35;;;43.33;;
24173;SDS011;12324;48.146;11.502;2022-12-18T01:33:46;74.18;;;40.20;;
24173;SDS011;12324;48.146;11.502;2022-12-18T01:36:14;75.25;;;38.28;;
24173;SDS011;12324;48.146;11.502;2022-12-18T01:38:41;67.32;;;37.00;;
24173;SDS011;12324;48.146;11.502;2022-12-18T01:41:09;86.55;;;42.17;;
24173;SDS011;12324;48.146;11.502;2022-12-18T01:43:43;74.13;;;39.40;;
24173;SDS011;12324;48.146;11.502;2022-12-18T01:46:11;80.05;;;41.60;;
24173;SDS011;12324;48.146;11.502;2022-12-18T01:48:38;81.00;;;40.92;;
24173;SDS011;12324;48.146;11.502;2022-12-18T01:51:06;70.28;;;38.80;;
24173;SDS011;12324;48.146;11.502;2022-12-18T01:53:34;76.10;;;39.78;;
24173;SDS011;12324;48.146;11.502;2022-12-18T01:56:03;79.82;;;41.53;;
24173;SDS011;12324;48.146;11.502;2022-12-18T02:01:03;73.85;;;40.38;;
24173;SDS011;12324;48.146;11.502;2022-12-18T02:03:30;74.32;;;40.33;;
24173;SDS011;12324;48.146;11.502;2022-12-18T02:08:26;74.68;;;39.85;;
24173;SDS011;12324;48.146;11.502;2022-12-18T02:15:56;72.00;;;37.20;;
24173;SDS011;12324;48.146;11.502;2022-12-18T02:18:49;72.65;;;38.50;;
24173;SDS011;12324;48.146;11.502;2022-12-18T02:21:31;74.35;;;36.10;;
24173;SDS011;12324;48.146;11.502;2022-12-18T02:24:13;71.53;;;37.42;;
24173;SDS011;12324;48.146;11.502;2022-12-18T02:26:49;76.65;;;40.08;;
24173;SDS011;12324;48.146;11.502;2022-12-18T02:29:28;67.28;;;36.92;;
24173;SDS011;12324;48.146;11.502;2022-12-18T02:31:58;68.10;;;36.08;;
24173;SDS011;12324;48.146;11.502;2022-12-18T02:34:29;74.78;;;40.97;;
24173;SDS011;12324;48.146;11.502;2022-12-18T02:36:58;75.20;;;41.70;;
24173;SDS011;12324;48.146;11.502;2022-12-18T02:39:26;82.53;;;40.47;;
24173;SDS011;12324;48.146;11.502;2022-12-18T02:41:55;73.57;;;39.92;;
24173;SDS011;12324;48.146;11.502;2022-12-18T02:44:23;77.85;;;40.30;;
24173;SDS011;12324;48.146;11.502;2022-12-18T02:46:51;77.93;;;41.38;;
24173;SDS011;12324;48.146;11.502;2022-12-18T02:49:31;81.65;;;42.80;;
24173;SDS011;12324;48.146;11.502;2022-12-18T02:55:00;77.53;;;40.63;;
24173;SDS011;12324;48.146;11.502;2022-12-18T03:00:05;74.82;;;39.42;;
24173;SDS011;12324;48.146;11.502;2022-12-18T03:05:12;83.57;;;42.08;;
24173;SDS011;12324;48.146;11.502;2022-12-18T03:07:49;75.60;;;39.30;;
24173;SDS011;12324;48.146;11.502;2022-12-18T03:10:18;73.45;;;40.30;;
24173;SDS011;12324;48.146;11.502;2022-12-18T03:12:47;87.40;;;43.00;;
24173;SDS011;12324;48.146;11.502;2022-12-18T03:15:18;85.90;;;44.10;;
24173;SDS011;12324;48.146;11.502;2022-12-18T03:17:46;77.28;;;41.72;;
24173;SDS011;12324;48.146;11.502;2022-12-18T03:20:18;79.47;;;41.80;;
24173;SDS011;12324;48.146;11.502;2022-12-18T03:22:46;73.03;;;41.13;;
24173;SDS011;12324;48.146;11.502;2022-12-18T03:25:13;75.88;;;41.72;;
24173;SDS011;12324;48.146;11.502;2022-12-18T03:27:42;75.57;;;40.45;;
24173;SDS011;12324;48.146;11.502;2022-12-18T03:30:11;77.38;;;42.08;;
24173;SDS011;12324;48.146;11.502;2022-12-18T03:32:44;79.13;;;41.58;;
24173;SDS011;12324;48.146;11.502;2022-12-18T03:35:14;77.00;;;42.05;;
24173;SDS011;12324;48.146;11.502;2022-12-18T03:37:44;80.97;;;41.88;;
24173;SDS011;12324;48.146;11.502;2022-12-18T03:40:11;75.43;;;40.72;;
24173;SDS011;12324;48.146;11.502;2022-12-18T03:45:42;80.03;;;41.00;;
24173;SDS011;12324;48.146;11.502;2022-12-18T03:48:18;72.28;;;39.70;;
24173;SDS011;12324;48.146;11.502;2022-12-18T03:50:57;78.82;;;42.00;;
24173;SDS011;12324;48.146;11.502;2022-12-18T03:53:27;81.47;;;42.83;;
24173;SDS011;12324;48.146;11.502;2022-12-18T03:55:55;82.45;;;43.55;;
24173;SDS011;12324;48.146;11.502;2022-12-18T03:58:24;77.28;;;43.90;;
24173;SDS011;12324;48.146;11.502;2022-12-18T04:00:52;81.40;;;43.10;;
24173;SDS011;12324;48.146;11.502;2022-12-18T04:03:20;75.55;;;41.95;;
24173;SDS011;12324;48.146;11.502;2022-12-18T04:05:51;80.30;;;41.95;;
24173;SDS011;12324;48.146;11.502;2022-12-18T04:08:21;82.20;;;44.17;;
24173;SDS011;12324;48.146;11.502;2022-12-18T04:10:48;82.53;;;45.30;;
24173;SDS011;12324;48.146;11.502;2022-12-18T04:13:28;80.85;;;42.35;;
24173;SDS011;12324;48.146;11.502;2022-12-18T04:15:56;75.00;;;41.67;;
24173;SDS011;12324;48.146;11.502;2022-12-18T04:18:23;83.85;;;45.03;;
24173;SDS011;12324;48.146;11.502;2022-12-18T04:20:50;74.18;;;40.55;;
24173;SDS011;12324;48.146;11.502;2022-12-18T04:23:17;71.97;;;40.67;;
24173;SDS011;12324;48.146;11.502;2022-12-18T04:25:44;74.78;;;41.17;;
24173;SDS011;12324;48.146;11.502;2022-12-18T04:28:11;75.93;;;39.28;;
24173;SDS011;12324;48.146;11.502;2022-12-18T04:30:38;80.90;;;45.05;;
24173;SDS011;12324;48.146;11.502;2022-12-18T04:33:10;86.55;;;45.20;;
24173;SDS011;12324;48.146;11.502;2022-12-18T04:35:37;82.50;;;45.10;;
24173;SDS011;12324;48.146;11.502;2022-12-18T04:38:05;73.55;;;39.13;;
24173;SDS011;12324;48.146;11.502;2022-12-18T04:40:32;70.47;;;40.38;;
24173;SDS011;12324;48.146;11.502;2022-12-18T04:42:59;76.68;;;41.03;;
24173;SDS011;12324;48.146;11.502;2022-12-18T04:45:26;70.68;;;39.58;;
24173;SDS011;12324;48.146;11.502;2022-12-18T04:47:53;69.97;;;41.25;;
24173;SDS011;12324;48.146;11.502;2022-12-18T04:50:20;76.80;;;41.92;;
24173;SDS011;12324;48.146;11.502;2022-12-18T04:52:47;81.72;;;45.45;;
24173;SDS011;12324;48.146;11.502;2022-12-18T04:55:14;75.03;;;42.10;;
24173;SDS011;12324;48.146;11.502;2022-12-18T04:57:41;77.15;;;41.38;;
24173;SDS011;12324;48.146;11.502;2022-12-18T05:00:09;73.40;;;40.70;;
24173;SDS011;12324;48.146;11.502;2022-12-18T05:02:36;80.32;;;42.17;;
24173;SDS011;12324;48.146;11.502;2022-12-18T05:05:03;69.40;;;41.35;;
24173;SDS011;12324;48.146;11.502;2022-12-18T05:07:30;70.68;;;40.10;;
24173;SDS011;12324;48.146;11.502;2022-12-18T05:09:57;65.15;;;38.67;;
24173;SDS011;12324;48.146;11.502;2022-12-18T05:12:24;79.68;;;43.40;;
24173;SDS011;12324;48.146;11.502;2022-12-18T05:14:51;66.03;;;38.95;;
24173;SDS011;12324;48.146;11.502;2022-12-18T05:17:18;69.32;;;39.38;;
24173;SDS011;12324;48.146;11.502;2022-12-18T05:19:45;66.85;;;36.40;;
24173;SDS011;12324;48.146;11.502;2022-12-18T05:22:12;66.32;;;38.88;;
24173;SDS011;12324;48.146;11.502;2022-12-18T05:24:40;73.55;;;41.97;;
24173;SDS011;12324;48.146;11.502;2022-12-18T05:27:07;65.35;;;39.45;;
24173;SDS011;12324;48.146;11.502;2022-12-18T05:29:34;68.90;;;38.90;;
24173;SDS011;12324;48.146;11.502;2022-12-18T05:32:01;71.32;;;38.55;;
24173;SDS011;12324;48.146;11.502;2022-12-18T05:34:28;66.60;;;36.90;;
24173;SDS011;12324;48.146;11.502;2022-12-18T05:36:55;68.15;;;36.35;;
24173;SDS011;12324;48.146;11.502;2022-12-18T05:39:22;64.35;;;36.63;;
24173;SDS011;12324;48.146;11.502;2022-12-18T05:41:49;62.00;;;34.78;;
24173;SDS011;12324;48.146;11.502;2022-12-18T05:44:16;65.60;;;39.25;;
24173;SDS011;12324;48.146;11.502;2022-12-18T05:46:43;68.22;;;37.42;;
24173;SDS011;12324;48.146;11.502;2022-12-18T05:49:10;69.15;;;38.00;;
24173;SDS011;12324;48.146;11.502;2022-12-18T05:51:37;58.45;;;35.58;;
24173;SDS011;12324;48.146;11.502;2022-12-18T05:54:04;65.43;;;37.22;;
24173;SDS011;12324;48.146;11.502;2022-12-18T05:56:32;67.32;;;37.15;;
24173;SDS011;12324;48.146;11.502;2022-12-18T05:58:59;60.47;;;34.25;;
24173;SDS011;12324;48.146;11.502;2022-12-18T06:01:26;65.90;;;35.70;;
24173;SDS011;12324;48.146;11.502;2022-12-18T06:03:54;63.03;;;34.97;;
24173;SDS011;12324;48.146;11.502;2022-12-18T06:06:23;62.22;;;34.90;;
24173;SDS011;12324;48.146;11.502;2022-12-18T06:08:50;59.53;;;34.05;;
24173;SDS011;12324;48.146;11.502;2022-12-18T06:11:25;66.63;;;35.55;;
24173;SDS011;12324;48.146;11.502;2022-12-18T06:13:53;59.20;;;33.60;;
24173;SDS011;12324;48.146;11.502;2022-12-18T06:16:24;63.35;;;37.10;;
24173;SDS011;12324;48.146;11.502;2022-12-18T06:18:52;62.03;;;35.28;;
24173;SDS011;12324;48.146;11.502;2022-12-18T06:21:19;59.40;;;35.42;;
24173;SDS011;12324;48.146;11.502;2022-12-18T06:23:46;58.97;;;35.38;;
24173;SDS011;12324;48.146;11.502;2022-12-18T06:26:13;56.42;;;33.03;;
24173;SDS011;12324;48.146;11.502;2022-12-18T06:28:41;56.15;;;33.33;;
24173;SDS011;12324;48.146;11.502;2022-12-18T06:31:08;57.00;;;34.35;;
24173;SDS011;12324;48.146;11.502;2022-12-18T06:33:36;59.03;;;34.25;;
24173;SDS011;12324;48.146;11.502;2022-12-18T06:36:08;60.78;;;35.28;;
24173;SDS011;12324;48.146;11.502;2022-12-18T06:38:36;57.38;;;34.47;;
24173;SDS011;12324;48.146;11.502;2022-12-18T06:41:08;61.35;;;35.65;;
24173;SDS011;12324;48.146;11.502;2022-12-18T06:43:35;59.05;;;33.92;;
24173;SDS011;12324;48.146;11.502;2022-12-18T06:46:03;63.85;;;36.00;;
24173;SDS011;12324;48.146;11.502;2022-12-18T06:48:31;62.63;;;35.22;;
24173;SDS011;12324;48.146;11.502;2022-12-18T06:50:58;66.97;;;36.75;;
24173;SDS011;12324;48.146;11.502;2022-12-18T06:53:26;63.67;;;34.55;;
24173;SDS011;12324;48.146;11.502;2022-12-18T06:55:59;61.88;;;34.25;;
24173;SDS011;12324;48.146;11.502;2022-12-18T06:58:34;62.60;;;34.85;;
24173;SDS011;12324;48.146;11.502;2022-12-18T07:01:02;60.78;;;36.40;;
24173;SDS011;12324;48.146;11.502;2022-12-18T07:03:29;56.95;;;33.63;;
24173;SDS011;12324;48.146;11.502;2022-12-18T07:05:56;63.70;;;33.95;;
24173;SDS011;12324;48.146;11.502;2022-12-18T07:08:24;62.00;;;35.03;;
24173;SDS011;12324;48.146;11.502;2022-12-18T07:10:51;55.50;;;31.95;;
24173;SDS011;12324;48.146;11.502;2022-12-18T07:13:21;58.83;;;34.22;;
24173;SDS011;12324;48.146;11.502;2022-12-18T07:15:48;54.08;;;33.38;;
24173;SDS011;12324;48.146;11.502;2022-12-18T07:18:16;53.10;;;31.25;;
24173;SDS011;12324;48.146;11.502;2022-12-18T07:20:43;59.72;;;34.40;;
24173;SDS011;12324;48.146;11.502;2022-12-18T07:23:11;56.00;;;32.88;;
24173;SDS011;12324;48.146;11.502;2022-12-18T07:25:38;54.78;;;32.53;;
24173;SDS011;12324;48.146;11.502;2022-12-18T07:28:05;55.00;;;31.80;;
24173;SDS011;12324;48.146;11.502;2022-12-18T07:30:37;58.13;;;33.72;;
24173;SDS011;12324;48.146;11.502;2022-12-18T07:33:04;60.75;;;34.83;;
24173;SDS011;12324;48.146;11.502;2022-12-18T07:35:32;55.55;;;33.78;;
24173;SDS011;12324;48.146;11.502;2022-12-18T07:37:59;56.22;;;34.92;;
24173;SDS011;12324;48.146;11.502;2022-12-18T07:40:26;65.82;;;35.65;;
24173;SDS011;12324;48.146;11.502;2022-12-18T07:42:53;62.53;;;35.63;;
24173;SDS011;12324;48.146;11.502;2022-12-18T07:45:20;60.30;;;33.42;;
24173;SDS011;12324;48.146;11.502;2022-12-18T07:47:47;63.65;;;35.78;;
24173;SDS011;12324;48.146;11.502;2022-12-18T07:50:14;67.80;;;35.33;;
24173;SDS011;12324;48.146;11.502;2022-12-18T07:52:41;63.60;;;34.67;;
24173;SDS011;12324;48.146;11.502;2022-12-18T07:55:08;55.33;;;32.50;;
24173;SDS011;12324;48.146;11.502;2022-12-18T07:57:35;58.80;;;33.70;;
24173;SDS011;12324;48.146;11.502;2022-12-18T08:00:22;51.72;;;33.13;;
24173;SDS011;12324;48.146;11.502;2022-12-18T08:02:49;54.55;;;31.98;;
24173;SDS011;12324;48.146;11.502;2022-12-18T08:05:17;57.70;;;32.00;;
24173;SDS011;12324;48.146;11.502;2022-12-18T08:07:44;57.05;;;31.58;;
24173;SDS011;12324;48.146;11.502;2022-12-18T08:10:11;60.03;;;32.58;;
24173;SDS011;12324;48.146;11.502;2022-12-18T08:12:38;58.17;;;34.47;;
24173;SDS011;12324;48.146;11.502;2022-12-18T08:15:05;55.03;;;31.83;;
24173;SDS011;12324;48.146;11.502;2022-12-18T08:17:32;57.22;;;32.88;;
24173;SDS011;12324;48.146;11.502;2022-12-18T08:20:00;58.75;;;33.33;;
24173;SDS011;12324;48.146;11.502;2022-12-18T08:22:27;56.22;;;33.15;;
24173;SDS011;12324;48.146;11.502;2022-12-18T08:24:54;59.83;;;33.95;;
24173;SDS011;12324;48.146;11.502;2022-12-18T08:27:21;55.60;;;33.00;;
24173;SDS011;12324;48.146;11.502;2022-12-18T08:29:56;57.67;;;32.47;;
24173;SDS011;12324;48.146;11.502;2022-12-18T08:32:24;51.50;;;31.30;;
24173;SDS011;12324;48.146;11.502;2022-12-18T08:34:51;51.25;;;32.53;;
24173;SDS011;12324;48.146;11.502;2022-12-18T08:37:18;53.65;;;31.08;;
24173;SDS011;12324;48.146;11.502;2022-12-18T08:39:45;52.63;;;30.77;;
24173;SDS011;12324;48.146;11.502;2022-12-18T08:42:12;51.25;;;31.48;;
24173;SDS011;12324;48.146;11.502;2022-12-18T08:44:58;50.10;;;30.50;;
24173;SDS011;12324;48.146;11.502;2022-12-18T08:47:25;55.28;;;33.35;;
24173;SDS011;12324;48.146;11.502;2022-12-18T08:49:52;50.25;;;29.77;;
24173;SDS011;12324;48.146;11.502;2022-12-18T08:52:19;52.75;;;30.38;;
24173;SDS011;12324;48.146;11.502;2022-12-18T08:54:46;53.38;;;30.92;;
24173;SDS011;12324;48.146;11.502;2022-12-18T08:57:13;52.80;;;29.77;;
24173;SDS011;12324;48.146;11.502;2022-12-18T08:59:40;50.70;;;28.92;;
24173;SDS011;12324;48.146;11.502;2022-12-18T09:02:11;54.10;;;27.83;;
24173;SDS011;12324;48.146;11.502;2022-12-18T09:04:38;51.30;;;29.73;;
24173;SDS011;12324;48.146;11.502;2022-12-18T09:07:05;51.35;;;29.35;;
24173;SDS011;12324;48.146;11.502;2022-12-18T09:09:32;48.58;;;28.48;;
24173;SDS011;12324;48.146;11.502;2022-12-18T09:11:59;46.60;;;28.85;;
24173;SDS011;12324;48.146;11.502;2022-12-18T09:14:27;54.45;;;32.08;;
24173;SDS011;12324;48.146;11.502;2022-12-18T09:16:54;51.63;;;31.02;;
24173;SDS011;12324;48.146;11.502;2022-12-18T09:19:21;48.80;;;29.67;;
24173;SDS011;12324;48.146;11.502;2022-12-18T09:21:48;51.70;;;31.95;;
24173;SDS011;12324;48.146;11.502;2022-12-18T09:24:15;52.15;;;30.75;;
24173;SDS011;12324;48.146;11.502;2022-12-18T09:26:42;47.03;;;29.83;;
24173;SDS011;12324;48.146;11.502;2022-12-18T09:29:12;48.28;;;28.33;;
24173;SDS011;12324;48.146;11.502;2022-12-18T09:31:41;48.25;;;28.88;;
24173;SDS011;12324;48.146;11.502;2022-12-18T09:34:08;46.95;;;28.15;;
24173;SDS011;12324;48.146;11.502;2022-12-18T09:36:35;45.90;;;26.60;;
24173;SDS011;12324;48.146;11.502;2022-12-18T09:39:02;47.83;;;27.75;;
24173;SDS011;12324;48.146;11.502;2022-12-18T09:46:49;45.50;;;25.58;;
24173;SDS011;12324;48.146;11.502;2022-12-18T09:49:18;41.63;;;24.17;;
24173;SDS011;12324;48.146;11.502;2022-12-18T09:52:21;42.80;;;25.52;;
24173;SDS011;12324;48.146;11.502;2022-12-18T09:54:41;44.70;;;25.35;;
24173;SDS011;12324;48.146;11.502;2022-12-18T09:57:13;52.25;;;29.58;;
24173;SDS011;12324;48.146;11.502;2022-12-18T09:59:40;44.67;;;27.17;;
24173;SDS011;12324;48.146;11.502;2022-12-18T10:02:15;43.47;;;26.20;;
24173;SDS011;12324;48.146;11.502;2022-12-18T10:04:43;45.42;;;25.98;;
24173;SDS011;12324;48.146;11.502;2022-12-18T10:09:55;43.70;;;26.63;;
24173;SDS011;12324;48.146;11.502;2022-12-18T10:12:32;44.55;;;24.83;;
24173;SDS011;12324;48.146;11.502;2022-12-18T10:15:47;44.28;;;25.83;;
24173;SDS011;12324;48.146;11.502;2022-12-18T10:20:51;41.85;;;25.20;;
24173;SDS011;12324;48.146;11.502;2022-12-18T10:26:00;46.03;;;27.58;;
24173;SDS011;12324;48.146;11.502;2022-12-18T10:28:29;41.17;;;24.13;;
24173;SDS011;12324;48.146;11.502;2022-12-18T10:30:56;51.55;;;27.63;;
24173;SDS011;12324;48.146;11.502;2022-12-18T10:33:24;43.60;;;25.33;;
24173;SDS011;12324;48.146;11.502;2022-12-18T10:35:55;45.40;;;25.77;;
24173;SDS011;12324;48.146;11.502;2022-12-18T10:38:23;45.30;;;26.63;;
24173;SDS011;12324;48.146;11.502;2022-12-18T10:40:53;44.35;;;27.42;;
24173;SDS011;12324;48.146;11.502;2022-12-18T10:43:29;48.17;;;28.92;;
24173;SDS011;12324;48.146;11.502;2022-12-18T10:46:01;44.78;;;26.75;;
24173;SDS011;12324;48.146;11.502;2022-12-18T10:48:31;49.03;;;28.50;;
24173;SDS011;12324;48.146;11.502;2022-12-18T10:51:02;51.60;;;30.80;;
24173;SDS011;12324;48.146;11.502;2022-12-18T10:53:38;52.17;;;30.17;;
24173;SDS011;12324;48.146;11.502;2022-12-18T10:56:08;49.67;;;29.63;;
24173;SDS011;12324;48.146;11.502;2022-12-18T10:58:35;48.70;;;30.50;;
24173;SDS011;12324;48.146;11.502;2022-12-18T11:03:58;48.38;;;27.77;;
24173;SDS011;12324;48.146;11.502;2022-12-18T11:06:28;45.40;;;28.08;;
24173;SDS011;12324;48.146;11.502;2022-12-18T11:11:39;41.90;;;26.30;;
24173;SDS011;12324;48.146;11.502;2022-12-18T11:14:13;47.08;;;27.55;;
24173;SDS011;12324;48.146;11.502;2022-12-18T11:16:51;45.08;;;27.42;;
24173;SDS011;12324;48.146;11.502;2022-12-18T11:19:39;44.80;;;25.85;;
24173;SDS011;12324;48.146;11.502;2022-12-18T11:22:20;48.10;;;29.42;;
24173;SDS011;12324;48.146;11.502;2022-12-18T11:27:46;46.80;;;28.38;;
24173;SDS011;12324;48.146;11.502;2022-12-18T11:30:29;43.30;;;24.83;;
24173;SDS011;12324;48.146;11.502;2022-12-18T11:38:30;48.42;;;27.60;;
24173;SDS011;12324;48.146;11.502;2022-12-18T11:41:19;43.60;;;24.98;;
24173;SDS011;12324;48.146;11.502;2022-12-18T11:44:42;46.70;;;27.05;;
24173;SDS011;12324;48.146;11.502;2022-12-18T11:47:22;42.03;;;26.70;;
24173;SDS011;12324;48.146;11.502;2022-12-18T11:50:05;46.25;;;28.20;;
24173;SDS011;12324;48.146;11.502;2022-12-18T11:52:39;43.92;;;27.17;;
24173;SDS011;12324;48.146;11.502;2022-12-18T12:03:16;48.97;;;27.95;;
24173;SDS011;12324;48.146;11.502;2022-12-18T12:05:58;47.72;;;28.70;;
24173;SDS011;12324;48.146;11.502;2022-12-18T12:09:13;52.28;;;29.52;;
24173;SDS011;12324;48.146;11.502;2022-12-18T12:14:05;48.53;;;28.25;;
24173;SDS011;12324;48.146;11.502;2022-12-18T12:16:57;46.30;;;27.10;;
24173;SDS011;12324;48.146;11.502;2022-12-18T12:19:34;47.15;;;26.67;;
24173;SDS011;12324;48.146;11.502;2022-12-18T12:30:19;46.65;;;26.15;;
24173;SDS011;12324;48.146;11.502;2022-12-18T12:32:55;43.70;;;27.25;;
24173;SDS011;12324;48.146;11.502;2022-12-18T12:35:38;49.05;;;27.52;;
24173;SDS011;12324;48.146;11.502;2022-12-18T12:40:54;45.78;;;26.20;;
24173;SDS011;12324;48.146;11.502;2022-12-18T12:43:35;46.42;;;27.15;;
24173;SDS011;12324;48.146;11.502;2022-12-18T12:46:17;46.33;;;27.95;;
24173;SDS011;12324;48.146;11.502;2022-12-18T12:48:48;43.45;;;25.58;;
24173;SDS011;12324;48.146;11.502;2022-12-18T12:51:21;45.90;;;27.25;;
24173;SDS011;12324;48.146;11.502;2022-12-18T12:53:49;43.50;;;26.75;;
24173;SDS011;12324;48.146;11.502;2022-12-18T12:56:17;43.33;;;26.60;;
24173;SDS011;12324;48.146;11.502;2022-12-18T13:01:37;46.90;;;26.25;;
24173;SDS011;12324;48.146;11.502;2022-12-18T13:09:13;44.88;;;27.80;;
24173;SDS011;12324;48.146;11.502;2022-12-18T13:11:43;42.05;;;25.92;;
24173;SDS011;12324;48.146;11.502;2022-12-18T13:19:51;43.53;;;26.23;;
24173;SDS011;12324;48.146;11.502;2022-12-18T13:22:42;42.55;;;25.08;;
24173;SDS011;12324;48.146;11.502;2022-12-18T13:25:27;47.90;;;28.75;;
24173;SDS011;12324;48.146;11.502;2022-12-18T13:30:45;44.17;;;24.52;;
24173;SDS011;12324;48.146;11.502;2022-12-18T13:40:59;45.25;;;25.42;;
24173;SDS011;12324;48.146;11.502;2022-12-18T13:43:27;42.97;;;25.45;;
24173;SDS011;12324;48.146;11.502;2022-12-18T13:45:59;41.90;;;25.45;;
24173;SDS011;12324;48.146;11.502;2022-12-18T13:48:29;46.60;;;26.93;;
24173;SDS011;12324;48.146;11.502;2022-12-18T13:51:08;44.10;;;24.10;;
24173;SDS011;12324;48.146;11.502;2022-12-18T13:53:38;43.28;;;25.25;;
24173;SDS011;12324;48.146;11.502;2022-12-18T13:56:09;40.53;;;24.60;;
24173;SDS011;12324;48.146;11.502;2022-12-18T13:58:42;38.90;;;23.42;;
24173;SDS011;12324;48.146;11.502;2022-12-18T14:01:22;42.58;;;25.55;;
24173;SDS011;12324;48.146;11.502;2022-12-18T14:03:50;44.25;;;26.77;;
24173;SDS011;12324;48.146;11.502;2022-12-18T14:06:16;44.13;;;25.65;;
24173;SDS011;12324;48.146;11.502;2022-12-18T14:08:43;44.45;;;26.48;;
24173;SDS011;12324;48.146;11.502;2022-12-18T14:11:17;44.85;;;26.30;;
24173;SDS011;12324;48.146;11.502;2022-12-18T14:13:48;41.28;;;26.80;;
24173;SDS011;12324;48.146;11.502;2022-12-18T14:16:16;44.83;;;27.35;;
24173;SDS011;12324;48.146;11.502;2022-12-18T14:18:44;46.13;;;27.08;;
24173;SDS011;12324;48.146;11.502;2022-12-18T14:21:33;47.00;;;27.38;;
24173;SDS011;12324;48.146;11.502;2022-12-18T14:24:05;42.72;;;27.23;;
24173;SDS011;12324;48.146;11.502;2022-12-18T14:26:39;47.28;;;26.35;;
24173;SDS011;12324;48.146;11.502;2022-12-18T14:29:23;48.67;;;26.90;;
24173;SDS011;12324;48.146;11.502;2022-12-18T14:32:04;46.55;;;27.80;;
24173;SDS011;12324;48.146;11.502;2022-12-18T14:34:41;47.85;;;28.77;;
24173;SDS011;12324;48.146;11.502;2022-12-18T14:37:17;51.90;;;28.10;;
24173;SDS011;12324;48.146;11.502;2022-12-18T14:40:00;48.50;;;29.05;;
24173;SDS011;12324;48.146;11.502;2022-12-18T14:42:36;49.30;;;28.77;;
24173;SDS011;12324;48.146;11.502;2022-12-18T14:48:53;51.17;;;26.00;;
24173;SDS011;12324;48.146;11.502;2022-12-18T14:51:03;52.35;;;28.67;;
24173;SDS011;12324;48.146;11.502;2022-12-18T14:53:41;48.08;;;27.98;;
24173;SDS011;12324;48.146;11.502;2022-12-18T14:56:25;44.45;;;27.50;;
24173;SDS011;12324;48.146;11.502;2022-12-18T14:59:01;55.63;;;28.95;;
24173;SDS011;12324;48.146;11.502;2022-12-18T15:01:30;50.08;;;27.20;;
24173;SDS011;12324;48.146;11.502;2022-12-18T15:04:05;49.60;;;28.63;;
24173;SDS011;12324;48.146;11.502;2022-12-18T15:07:02;49.22;;;28.38;;
24173;SDS011;12324;48.146;11.502;2022-12-18T15:09:40;50.58;;;28.35;;
24173;SDS011;12324;48.146;11.502;2022-12-18T15:18:00;56.70;;;29.77;;
24173;SDS011;12324;48.146;11.502;2022-12-18T15:20:30;54.00;;;30.33;;
24173;SDS011;12324;48.146;11.502;2022-12-18T15:22:58;50.00;;;28.13;;
24173;SDS011;12324;48.146;11.502;2022-12-18T15:27:52;48.08;;;29.75;;
24173;SDS011;12324;48.146;11.502;2022-12-18T15:30:20;53.28;;;29.48;;
24173;SDS011;12324;48.146;11.502;2022-12-18T15:32:48;50.88;;;27.45;;
24173;SDS011;12324;48.146;11.502;2022-12-18T15:35:16;48.05;;;28.55;;
24173;SDS011;12324;48.146;11.502;2022-12-18T15:37:44;46.35;;;25.98;;
24173;SDS011;12324;48.146;11.502;2022-12-18T15:40:12;51.72;;;30.38;;
24173;SDS011;12324;48.146;11.502;2022-12-18T15:42:42;52.45;;;30.10;;
24173;SDS011;12324;48.146;11.502;2022-12-18T15:45:28;46.92;;;27.73;;
24173;SDS011;12324;48.146;11.502;2022-12-18T15:47:55;48.80;;;28.38;;
24173;SDS011;12324;48.146;11.502;2022-12-18T15:50:23;50.08;;;30.00;;
24173;SDS011;12324;48.146;11.502;2022-12-18T15:52:51;49.28;;;28.63;;
24173;SDS011;12324;48.146;11.502;2022-12-18T15:55:20;48.25;;;29.45;;
24173;SDS011;12324;48.146;11.502;2022-12-18T15:58:07;56.25;;;29.38;;
24173;SDS011;12324;48.146;11.502;2022-12-18T16:00:35;52.90;;;31.05;;
24173;SDS011;12324;48.146;11.502;2022-12-18T16:03:04;53.58;;;30.27;;
24173;SDS011;12324;48.146;11.502;2022-12-18T16:05:31;53.05;;;31.80;;
24173;SDS011;12324;48.146;11.502;2022-12-18T16:07:59;53.13;;;32.13;;
24173;SDS011;12324;48.146;11.502;2022-12-18T16:10:25;46.67;;;29.25;;
24173;SDS011;12324;48.146;11.502;2022-12-18T16:12:52;49.08;;;29.38;;
24173;SDS011;12324;48.146;11.502;2022-12-18T16:15:19;52.55;;;30.83;;